sensor_id;sensor_type;location;lat;lon;timestamp;pressure;altitude;pressure_sealevel;temperature;humidity
36254;BME280;22291;52.250;21.228;2023-03-31T00:02:02;99107.73;;;8.76;97.22
36254;BME280;22291;52.250;21.228;2023-03-31T00:04:31;99112.23;;;8.78;97.80
36254;BME280;22291;52.250;21.228;2023-03-31T00:06:58;99107.47;;;8.84;98.88
36254;BME280;22291;52.250;21.228;2023-03-31T00:09:24;99102.75;;;8.87;98.64
36254;BME280;22291;52.250;21.228;2023-03-31T00:11:51;99107.73;;;8.91;98.21
36254;BME280;22291;52.250;21.228;2023-03-31T00:14:18;99116.98;;;8.96;98.18
36254;BME280;22291;52.250;21.228;2023-03-31T00:16:45;99113.16;;;8.97;98.04
36254;BME280;22291;52.250;21.228;2023-03-31T00:19:12;99108.46;;;9.00;97.87
36254;BME280;22291;52.250;21.228;2023-03-31T00:21:47;99107.36;;;9.01;97.68
36254;BME280;22291;52.250;21.228;2023-03-31T00:24:14;99101.08;;;9.03;97.36
36254;BME280;22291;52.250;21.228;2023-03-31T00:26:41;99105.36;;;9.04;97.80
36254;BME280;22291;52.250;21.228;2023-03-31T00:29:09;99105.25;;;9.07;97.69
36254;BME280;22291;52.250;21.228;2023-03-31T00:31:38;99099.20;;;9.10;97.16
36254;BME280;22291;52.250;21.228;2023-03-31T00:34:05;99095.16;;;9.10;97.04
36254;BME280;22291;52.250;21.228;2023-03-31T00:36:31;99103.71;;;9.12;96.69
36254;BME280;22291;52.250;21.228;2023-03-31T00:39:05;99104.28;;;9.11;96.84
36254;BME280;22291;52.250;21.228;2023-03-31T00:41:36;99106.08;;;9.13;96.79
36254;BME280;22291;52.250;21.228;2023-03-31T00:44:15;99109.02;;;9.14;96.71
36254;BME280;22291;52.250;21.228;2023-03-31T00:49:49;99115.66;;;9.17;96.59
36254;BME280;22291;52.250;21.228;2023-03-31T00:52:27;99115.33;;;9.19;96.69
36254;BME280;22291;52.250;21.228;2023-03-31T00:55:00;99108.50;;;9.21;96.38
36254;BME280;22291;52.250;21.228;2023-03-31T00:57:29;99105.45;;;9.23;96.21
36254;BME280;22291;52.250;21.228;2023-03-31T01:00:01;99101.41;;;9.23;96.07
36254;BME280;22291;52.250;21.228;2023-03-31T01:02:31;99100.53;;;9.25;95.96
36254;BME280;22291;52.250;21.228;2023-03-31T01:04:59;99100.75;;;9.26;96.10
36254;BME280;22291;52.250;21.228;2023-03-31T01:07:36;99094.81;;;9.26;95.76
36254;BME280;22291;52.250;21.228;2023-03-31T01:10:06;99099.08;;;9.27;95.81
36254;BME280;22291;52.250;21.228;2023-03-31T01:12:39;99103.36;;;9.28;95.51
36254;BME280;22291;52.250;21.228;2023-03-31T01:15:09;99098.99;;;9.30;95.81
36254;BME280;22291;52.250;21.228;2023-03-31T01:17:36;99090.33;;;9.30;96.05
36254;BME280;22291;52.250;21.228;2023-03-31T01:20:17;99090.57;;;9.31;95.62
36254;BME280;22291;52.250;21.228;2023-03-31T01:45:20;99070.45;;;9.35;94.78
36254;BME280;22291;52.250;21.228;2023-03-31T01:50:47;99067.43;;;9.37;94.51
36254;BME280;22291;52.250;21.228;2023-03-31T01:59:01;99073.94;;;9.35;94.26
36254;BME280;22291;52.250;21.228;2023-03-31T02:01:34;99081.02;;;9.34;94.13
36254;BME280;22291;52.250;21.228;2023-03-31T02:04:15;99081.58;;;9.33;93.93
36254;BME280;22291;52.250;21.228;2023-03-31T02:06:53;99079.77;;;9.31;94.07
36254;BME280;22291;52.250;21.228;2023-03-31T02:09:28;99087.87;;;9.31;94.19
36254;BME280;22291;52.250;21.228;2023-03-31T02:11:57;99078.52;;;9.29;94.06
36254;BME280;22291;52.250;21.228;2023-03-31T02:14:27;99085.50;;;9.30;93.95
36254;BME280;22291;52.250;21.228;2023-03-31T02:16:57;99086.94;;;9.27;93.92
36254;BME280;22291;52.250;21.228;2023-03-31T02:19:30;99073.44;;;9.27;94.34
36254;BME280;22291;52.250;21.228;2023-03-31T02:21:58;99081.53;;;9.27;94.16
36254;BME280;22291;52.250;21.228;2023-03-31T02:24:30;99079.73;;;9.25;93.97
36254;BME280;22291;52.250;21.228;2023-03-31T02:29:31;99076.80;;;9.24;93.95
36254;BME280;22291;52.250;21.228;2023-03-31T02:34:53;99087.13;;;9.22;93.65
36254;BME280;22291;52.250;21.228;2023-03-31T02:37:21;99088.80;;;9.21;93.72
36254;BME280;22291;52.250;21.228;2023-03-31T02:39:49;99098.58;;;9.19;93.66
36254;BME280;22291;52.250;21.228;2023-03-31T02:42:18;99097.23;;;9.19;94.06
36254;BME280;22291;52.250;21.228;2023-03-31T02:44:46;99083.52;;;9.18;94.16
36254;BME280;22291;52.250;21.228;2023-03-31T02:47:14;99084.30;;;9.19;94.04
36254;BME280;22291;52.250;21.228;2023-03-31T02:49:46;99086.22;;;9.18;93.71
36254;BME280;22291;52.250;21.228;2023-03-31T03:04:34;99086.87;;;9.15;93.53
36254;BME280;22291;52.250;21.228;2023-03-31T03:13:03;99087.84;;;9.10;93.48
36254;BME280;22291;52.250;21.228;2023-03-31T03:15:44;99090.87;;;9.09;93.62
36254;BME280;22291;52.250;21.228;2023-03-31T03:18:15;99089.06;;;9.07;93.86
36254;BME280;22291;52.250;21.228;2023-03-31T03:20:42;99099.08;;;9.06;93.55
36254;BME280;22291;52.250;21.228;2023-03-31T03:23:10;99105.58;;;9.05;93.50
36254;BME280;22291;52.250;21.228;2023-03-31T03:25:36;99106.36;;;9.06;93.45
36254;BME280;22291;52.250;21.228;2023-03-31T03:28:03;99105.58;;;9.05;93.79
36254;BME280;22291;52.250;21.228;2023-03-31T03:30:29;99109.63;;;9.05;93.63
36254;BME280;22291;52.250;21.228;2023-03-31T03:32:56;99109.05;;;9.06;93.63
36254;BME280;22291;52.250;21.228;2023-03-31T03:35:24;99103.13;;;9.06;93.46
36254;BME280;22291;52.250;21.228;2023-03-31T03:37:51;99106.60;;;9.07;94.00
36254;BME280;22291;52.250;21.228;2023-03-31T03:40:17;99117.50;;;9.04;93.55
36254;BME280;22291;52.250;21.228;2023-03-31T03:42:44;99122.33;;;9.05;93.43
36254;BME280;22291;52.250;21.228;2023-03-31T03:45:10;99116.16;;;9.04;93.30
36254;BME280;22291;52.250;21.228;2023-03-31T03:47:36;99118.28;;;9.05;93.43
36254;BME280;22291;52.250;21.228;2023-03-31T03:50:03;99113.98;;;9.04;93.96
36254;BME280;22291;52.250;21.228;2023-03-31T03:52:31;99116.47;;;9.03;93.08
36254;BME280;22291;52.250;21.228;2023-03-31T03:54:57;99120.73;;;9.04;93.02
36254;BME280;22291;52.250;21.228;2023-03-31T03:57:24;99124.56;;;9.03;92.87
36254;BME280;22291;52.250;21.228;2023-03-31T03:59:50;99111.48;;;8.98;92.75
36254;BME280;22291;52.250;21.228;2023-03-31T04:02:17;99117.52;;;8.95;92.45
36254;BME280;22291;52.250;21.228;2023-03-31T04:04:44;99131.91;;;8.93;92.35
36254;BME280;22291;52.250;21.228;2023-03-31T04:07:11;99129.31;;;8.91;92.41
36254;BME280;22291;52.250;21.228;2023-03-31T04:09:37;99127.27;;;8.88;92.38
36254;BME280;22291;52.250;21.228;2023-03-31T04:12:03;99140.28;;;8.86;92.53
36254;BME280;22291;52.250;21.228;2023-03-31T04:14:30;99150.61;;;8.84;92.57
36254;BME280;22291;52.250;21.228;2023-03-31T04:16:56;99146.33;;;8.83;92.77
36254;BME280;22291;52.250;21.228;2023-03-31T04:19:23;99135.08;;;8.81;92.72
36254;BME280;22291;52.250;21.228;2023-03-31T04:21:52;99141.36;;;8.78;92.58
36254;BME280;22291;52.250;21.228;2023-03-31T04:24:27;99139.20;;;8.78;92.50
36254;BME280;22291;52.250;21.228;2023-03-31T04:26:57;99139.06;;;8.74;92.50
36254;BME280;22291;52.250;21.228;2023-03-31T04:29:25;99139.95;;;8.72;92.87
36254;BME280;22291;52.250;21.228;2023-03-31T04:31:53;99135.45;;;8.70;92.74
36254;BME280;22291;52.250;21.228;2023-03-31T04:34:22;99134.95;;;8.68;92.88
36254;BME280;22291;52.250;21.228;2023-03-31T04:36:52;99134.73;;;8.67;92.95
36254;BME280;22291;52.250;21.228;2023-03-31T04:39:21;99131.02;;;8.66;93.07
36254;BME280;22291;52.250;21.228;2023-03-31T04:41:49;99134.28;;;8.65;93.02
36254;BME280;22291;52.250;21.228;2023-03-31T04:44:16;99124.60;;;8.64;93.11
36254;BME280;22291;52.250;21.228;2023-03-31T04:46:42;99127.86;;;8.64;93.04
36254;BME280;22291;52.250;21.228;2023-03-31T04:49:08;99122.23;;;8.63;92.97
36254;BME280;22291;52.250;21.228;2023-03-31T04:51:34;99135.14;;;8.63;92.90
36254;BME280;22291;52.250;21.228;2023-03-31T04:54:00;99123.67;;;8.60;92.89
36254;BME280;22291;52.250;21.228;2023-03-31T04:56:27;99114.92;;;8.63;92.78
36254;BME280;22291;52.250;21.228;2023-03-31T04:58:53;99120.56;;;8.64;92.71
36254;BME280;22291;52.250;21.228;2023-03-31T05:01:19;99116.52;;;8.64;92.64
36254;BME280;22291;52.250;21.228;2023-03-31T05:03:46;99116.52;;;8.64;92.59
36254;BME280;22291;52.250;21.228;2023-03-31T05:06:14;99109.20;;;8.65;92.57
36254;BME280;22291;52.250;21.228;2023-03-31T05:08:42;99115.87;;;8.67;92.85
36254;BME280;22291;52.250;21.228;2023-03-31T05:11:09;99119.13;;;8.67;92.58
36254;BME280;22291;52.250;21.228;2023-03-31T05:13:36;99116.19;;;8.66;92.35
36254;BME280;22291;52.250;21.228;2023-03-31T05:16:07;99122.61;;;8.67;92.52
36254;BME280;22291;52.250;21.228;2023-03-31T05:18:37;99116.33;;;8.69;92.52
36254;BME280;22291;52.250;21.228;2023-03-31T05:21:15;99114.55;;;8.73;92.46
36254;BME280;22291;52.250;21.228;2023-03-31T05:23:44;99109.65;;;8.75;92.56
36254;BME280;22291;52.250;21.228;2023-03-31T05:26:13;99109.14;;;8.82;92.83
36254;BME280;22291;52.250;21.228;2023-03-31T05:28:39;99119.95;;;8.88;92.80
36254;BME280;22291;52.250;21.228;2023-03-31T05:31:08;99109.63;;;8.90;92.82
36254;BME280;22291;52.250;21.228;2023-03-31T05:33:38;99113.27;;;8.94;92.82
36254;BME280;22291;52.250;21.228;2023-03-31T05:36:09;99114.19;;;8.98;92.67
36254;BME280;22291;52.250;21.228;2023-03-31T05:38:39;99112.10;;;9.04;92.75
36254;BME280;22291;52.250;21.228;2023-03-31T05:41:06;99108.41;;;9.09;92.49
36254;BME280;22291;52.250;21.228;2023-03-31T05:43:35;99107.05;;;9.09;92.32
36254;BME280;22291;52.250;21.228;2023-03-31T05:46:02;99100.69;;;9.13;92.29
36254;BME280;22291;52.250;21.228;2023-03-31T05:48:29;99093.62;;;9.15;92.28
36254;BME280;22291;52.250;21.228;2023-03-31T05:50:58;99094.85;;;9.18;92.34
36254;BME280;22291;52.250;21.228;2023-03-31T05:53:25;99093.55;;;9.24;92.48
36254;BME280;22291;52.250;21.228;2023-03-31T05:55:59;99100.14;;;9.35;92.69
36254;BME280;22291;52.250;21.228;2023-03-31T05:58:27;99100.07;;;9.44;92.79
36254;BME280;22291;52.250;21.228;2023-03-31T06:01:09;99093.90;;;9.49;92.50
36254;BME280;22291;52.250;21.228;2023-03-31T06:03:39;99091.00;;;9.54;92.25
36254;BME280;22291;52.250;21.228;2023-03-31T06:06:07;99098.20;;;9.57;91.82
36254;BME280;22291;52.250;21.228;2023-03-31T06:08:35;99097.66;;;9.57;91.50
36254;BME280;22291;52.250;21.228;2023-03-31T06:11:04;99087.97;;;9.56;91.43
36254;BME280;22291;52.250;21.228;2023-03-31T06:13:33;99094.27;;;9.60;91.51
36254;BME280;22291;52.250;21.228;2023-03-31T06:16:01;99095.98;;;9.65;91.79
36254;BME280;22291;52.250;21.228;2023-03-31T06:18:29;99095.13;;;9.73;91.76
36254;BME280;22291;52.250;21.228;2023-03-31T06:20:57;99094.47;;;9.76;91.32
36254;BME280;22291;52.250;21.228;2023-03-31T06:23:24;99091.31;;;9.80;91.36
36254;BME280;22291;52.250;21.228;2023-03-31T06:25:52;99091.67;;;9.85;91.22
36254;BME280;22291;52.250;21.228;2023-03-31T06:28:20;99098.55;;;9.88;90.84
36254;BME280;22291;52.250;21.228;2023-03-31T06:30:47;99099.23;;;9.91;90.69
36254;BME280;22291;52.250;21.228;2023-03-31T06:33:13;99098.01;;;9.95;90.85
36254;BME280;22291;52.250;21.228;2023-03-31T06:35:40;99102.75;;;9.98;90.43
36254;BME280;22291;52.250;21.228;2023-03-31T06:38:06;99095.88;;;10.01;90.18
36254;BME280;22291;52.250;21.228;2023-03-31T06:40:32;99101.52;;;10.02;90.13
36254;BME280;22291;52.250;21.228;2023-03-31T06:42:59;99106.02;;;10.04;89.79
36254;BME280;22291;52.250;21.228;2023-03-31T06:45:25;99096.47;;;10.06;89.84
36254;BME280;22291;52.250;21.228;2023-03-31T06:47:51;99093.09;;;10.16;90.27
36254;BME280;22291;52.250;21.228;2023-03-31T06:50:18;99084.11;;;10.24;89.77
36254;BME280;22291;52.250;21.228;2023-03-31T06:52:44;99085.61;;;10.40;89.90
36254;BME280;22291;52.250;21.228;2023-03-31T06:55:11;99089.35;;;10.66;89.70
36254;BME280;22291;52.250;21.228;2023-03-31T06:57:38;99093.95;;;10.84;88.61
36254;BME280;22291;52.250;21.228;2023-03-31T07:00:06;99095.08;;;10.95;88.01
36254;BME280;22291;52.250;21.228;2023-03-31T07:02:33;99091.35;;;10.94;86.93
36254;BME280;22291;52.250;21.228;2023-03-31T07:04:59;99085.73;;;10.87;86.40
36254;BME280;22291;52.250;21.228;2023-03-31T07:07:26;99090.02;;;10.81;86.01
36254;BME280;22291;52.250;21.228;2023-03-31T07:09:52;99097.69;;;10.73;85.76
36254;BME280;22291;52.250;21.228;2023-03-31T07:12:18;99091.16;;;10.68;86.28
36254;BME280;22291;52.250;21.228;2023-03-31T07:14:45;99087.88;;;10.69;86.68
36254;BME280;22291;52.250;21.228;2023-03-31T07:17:11;99085.28;;;10.78;87.09
36254;BME280;22291;52.250;21.228;2023-03-31T07:19:37;99083.13;;;10.90;86.86
36254;BME280;22291;52.250;21.228;2023-03-31T07:22:05;99090.00;;;10.94;85.84
36254;BME280;22291;52.250;21.228;2023-03-31T07:24:31;99085.38;;;11.00;86.46
36254;BME280;22291;52.250;21.228;2023-03-31T07:26:58;99084.77;;;11.13;85.98
36254;BME280;22291;52.250;21.228;2023-03-31T07:29:26;99078.87;;;11.24;85.59
36254;BME280;22291;52.250;21.228;2023-03-31T07:31:52;99082.49;;;11.28;84.98
36254;BME280;22291;52.250;21.228;2023-03-31T07:34:18;99087.56;;;11.29;84.31
36254;BME280;22291;52.250;21.228;2023-03-31T07:36:44;99090.03;;;11.28;84.06
36254;BME280;22291;52.250;21.228;2023-03-31T07:39:11;99083.16;;;11.31;83.81
36254;BME280;22291;52.250;21.228;2023-03-31T07:41:38;99088.09;;;11.41;83.99
36254;BME280;22291;52.250;21.228;2023-03-31T07:44:05;99085.43;;;11.57;83.28
36254;BME280;22291;52.250;21.228;2023-03-31T07:46:32;99083.42;;;11.76;83.42
36254;BME280;22291;52.250;21.228;2023-03-31T07:48:58;99086.45;;;12.09;84.25
36254;BME280;22291;52.250;21.228;2023-03-31T07:51:26;99077.27;;;12.45;84.21
36254;BME280;22291;52.250;21.228;2023-03-31T07:53:53;99084.53;;;12.83;81.83
36254;BME280;22291;52.250;21.228;2023-03-31T07:56:21;99071.20;;;12.94;81.04
36254;BME280;22291;52.250;21.228;2023-03-31T07:58:49;99079.03;;;13.15;78.38
36254;BME280;22291;52.250;21.228;2023-03-31T08:01:19;99070.25;;;13.21;78.52
36254;BME280;22291;52.250;21.228;2023-03-31T08:03:49;99072.70;;;13.36;77.81
36254;BME280;22291;52.250;21.228;2023-03-31T08:06:20;99067.14;;;13.39;77.05
36254;BME280;22291;52.250;21.228;2023-03-31T08:08:49;99057.97;;;13.57;77.81
36254;BME280;22291;52.250;21.228;2023-03-31T08:11:16;99055.95;;;13.83;77.92
36254;BME280;22291;52.250;21.228;2023-03-31T08:13:44;99057.55;;;13.97;76.62
36254;BME280;22291;52.250;21.228;2023-03-31T08:16:10;99056.83;;;14.00;73.59
36254;BME280;22291;52.250;21.228;2023-03-31T08:18:36;99052.12;;;14.20;73.74
36254;BME280;22291;52.250;21.228;2023-03-31T08:21:03;99032.00;;;14.38;75.70
36254;BME280;22291;52.250;21.228;2023-03-31T08:23:30;99033.58;;;14.93;75.09
36254;BME280;22291;52.250;21.228;2023-03-31T08:26:12;99031.19;;;15.18;73.87
36254;BME280;22291;52.250;21.228;2023-03-31T08:28:42;99027.84;;;15.32;72.55
36254;BME280;22291;52.250;21.228;2023-03-31T08:31:08;99035.16;;;15.24;70.67
36254;BME280;22291;52.250;21.228;2023-03-31T08:33:36;99025.89;;;14.99;69.92
36254;BME280;22291;52.250;21.228;2023-03-31T08:36:04;99035.48;;;14.89;69.24
36254;BME280;22291;52.250;21.228;2023-03-31T08:38:34;99031.36;;;14.72;68.83
36254;BME280;22291;52.250;21.228;2023-03-31T08:41:05;99027.98;;;14.55;68.83
36254;BME280;22291;52.250;21.228;2023-03-31T08:43:38;99027.56;;;14.53;69.20
36254;BME280;22291;52.250;21.228;2023-03-31T08:46:13;99040.23;;;14.42;68.79
36254;BME280;22291;52.250;21.228;2023-03-31T08:48:40;99033.81;;;14.17;67.37
36254;BME280;22291;52.250;21.228;2023-03-31T08:51:31;99033.80;;;13.94;68.38
36254;BME280;22291;52.250;21.228;2023-03-31T08:54:33;99025.64;;;13.71;67.96
36254;BME280;22291;52.250;21.228;2023-03-31T08:57:11;99021.16;;;13.40;68.05
36254;BME280;22291;52.250;21.228;2023-03-31T08:59:38;99013.17;;;13.18;69.36
36254;BME280;22291;52.250;21.228;2023-03-31T09:08:33;99006.84;;;12.84;72.78
36254;BME280;22291;52.250;21.228;2023-03-31T09:11:13;99011.39;;;12.80;73.53
36254;BME280;22291;52.250;21.228;2023-03-31T09:16:50;99010.52;;;12.57;73.67
36254;BME280;22291;52.250;21.228;2023-03-31T09:19:36;99006.72;;;12.51;73.69
36254;BME280;22291;52.250;21.228;2023-03-31T09:22:16;99000.14;;;12.52;74.76
36254;BME280;22291;52.250;21.228;2023-03-31T09:27:42;99003.89;;;12.64;73.70
36254;BME280;22291;52.250;21.228;2023-03-31T09:30:30;99000.47;;;12.77;75.06
36254;BME280;22291;52.250;21.228;2023-03-31T09:32:51;98995.27;;;12.97;74.14
36254;BME280;22291;52.250;21.228;2023-03-31T09:35:32;98983.73;;;13.20;74.54
36254;BME280;22291;52.250;21.228;2023-03-31T09:37:59;98980.22;;;13.49;73.75
36254;BME280;22291;52.250;21.228;2023-03-31T09:40:27;98981.45;;;13.74;74.62
36254;BME280;22291;52.250;21.228;2023-03-31T09:43:00;98982.48;;;14.03;72.70
36254;BME280;22291;52.250;21.228;2023-03-31T09:45:35;98984.72;;;14.20;71.24
36254;BME280;22291;52.250;21.228;2023-03-31T09:48:06;98976.81;;;14.25;70.80
36254;BME280;22291;52.250;21.228;2023-03-31T09:50:50;98975.13;;;14.30;70.77
36254;BME280;22291;52.250;21.228;2023-03-31T09:53:33;98983.98;;;14.36;70.18
36254;BME280;22291;52.250;21.228;2023-03-31T09:56:07;98971.37;;;14.38;69.73
36254;BME280;22291;52.250;21.228;2023-03-31T09:58:44;98970.87;;;14.42;69.44
36254;BME280;22291;52.250;21.228;2023-03-31T10:01:14;98968.45;;;14.64;71.05
36254;BME280;22291;52.250;21.228;2023-03-31T10:03:49;98964.03;;;14.82;69.43
36254;BME280;22291;52.250;21.228;2023-03-31T10:06:17;98963.38;;;14.92;70.46
36254;BME280;22291;52.250;21.228;2023-03-31T10:08:53;98962.24;;;14.93;67.43
36254;BME280;22291;52.250;21.228;2023-03-31T10:11:23;98955.74;;;14.71;67.45
36254;BME280;22291;52.250;21.228;2023-03-31T10:14:09;98960.95;;;14.57;67.37
36254;BME280;22291;52.250;21.228;2023-03-31T10:16:49;98952.01;;;14.56;67.85
36254;BME280;22291;52.250;21.228;2023-03-31T10:19:27;98948.33;;;14.85;66.63
36254;BME280;22291;52.250;21.228;2023-03-31T10:21:57;98943.66;;;15.20;66.10
36254;BME280;22291;52.250;21.228;2023-03-31T10:24:36;98952.70;;;15.27;65.25
36254;BME280;22291;52.250;21.228;2023-03-31T10:27:20;98951.68;;;15.22;65.08
36254;BME280;22291;52.250;21.228;2023-03-31T10:29:45;98928.95;;;15.07;65.15
36254;BME280;22291;52.250;21.228;2023-03-31T10:32:20;98939.09;;;14.93;65.31
36254;BME280;22291;52.250;21.228;2023-03-31T10:34:57;98931.95;;;14.82;65.73
36254;BME280;22291;52.250;21.228;2023-03-31T10:37:27;98932.80;;;14.72;64.63
36254;BME280;22291;52.250;21.228;2023-03-31T10:39:59;98928.85;;;14.66;66.24
36254;BME280;22291;52.250;21.228;2023-03-31T10:42:32;98932.39;;;14.70;67.05
36254;BME280;22291;52.250;21.228;2023-03-31T10:45:28;98930.70;;;14.75;66.87
36254;BME280;22291;52.250;21.228;2023-03-31T10:48:00;98924.34;;;14.81;66.62
36254;BME280;22291;52.250;21.228;2023-03-31T10:50:32;98930.12;;;15.10;65.50
36254;BME280;22291;52.250;21.228;2023-03-31T10:53:10;98924.61;;;15.40;66.72
36254;BME280;22291;52.250;21.228;2023-03-31T11:05:14;98916.17;;;15.97;62.63
36254;BME280;22291;52.250;21.228;2023-03-31T11:08:47;98909.53;;;15.74;61.69
36254;BME280;22291;52.250;21.228;2023-03-31T11:11:03;98905.38;;;15.43;61.45
36254;BME280;22291;52.250;21.228;2023-03-31T11:13:36;98911.70;;;15.34;62.79
36254;BME280;22291;52.250;21.228;2023-03-31T11:22:24;98894.23;;;15.38;62.54
36254;BME280;22291;52.250;21.228;2023-03-31T11:33:48;98885.50;;;15.83;61.85
36254;BME280;22291;52.250;21.228;2023-03-31T11:45:04;98886.17;;;16.32;60.57
36254;BME280;22291;52.250;21.228;2023-03-31T11:47:34;98868.89;;;16.41;60.78
36254;BME280;22291;52.250;21.228;2023-03-31T11:50:11;98855.50;;;16.53;60.51
36254;BME280;22291;52.250;21.228;2023-03-31T11:52:47;98865.87;;;16.68;59.50
36254;BME280;22291;52.250;21.228;2023-03-31T11:55:17;98866.67;;;16.72;58.34
36254;BME280;22291;52.250;21.228;2023-03-31T11:58:13;98858.30;;;16.78;59.54
36254;BME280;22291;52.250;21.228;2023-03-31T12:00:47;98845.67;;;16.87;58.75
36254;BME280;22291;52.250;21.228;2023-03-31T12:05:55;98841.45;;;17.15;60.05
36254;BME280;22291;52.250;21.228;2023-03-31T12:08:27;98839.70;;;17.24;58.45
36254;BME280;22291;52.250;21.228;2023-03-31T12:11:08;98839.88;;;17.10;56.82
36254;BME280;22291;52.250;21.228;2023-03-31T12:13:43;98837.69;;;16.95;56.49
36254;BME280;22291;52.250;21.228;2023-03-31T12:16:16;98839.05;;;16.95;57.12
36254;BME280;22291;52.250;21.228;2023-03-31T12:19:04;98827.96;;;17.02;58.09
36254;BME280;22291;52.250;21.228;2023-03-31T12:21:43;98822.70;;;17.21;58.58
36254;BME280;22291;52.250;21.228;2023-03-31T12:24:30;98823.48;;;17.21;56.44
36254;BME280;22291;52.250;21.228;2023-03-31T12:27:25;98816.83;;;17.04;56.77
36254;BME280;22291;52.250;21.228;2023-03-31T12:29:59;98814.30;;;16.91;55.76
36254;BME280;22291;52.250;21.228;2023-03-31T12:32:35;98816.94;;;16.73;56.65
36254;BME280;22291;52.250;21.228;2023-03-31T12:35:23;98807.94;;;16.61;56.41
36254;BME280;22291;52.250;21.228;2023-03-31T12:41:06;98803.66;;;16.60;57.11
36254;BME280;22291;52.250;21.228;2023-03-31T12:49:29;98788.11;;;16.75;58.02
36254;BME280;22291;52.250;21.228;2023-03-31T12:52:32;98790.48;;;16.88;57.71
36254;BME280;22291;52.250;21.228;2023-03-31T12:57:51;98786.77;;;17.62;56.68
36254;BME280;22291;52.250;21.228;2023-03-31T13:00:21;98781.13;;;17.43;53.88
36254;BME280;22291;52.250;21.228;2023-03-31T13:02:50;98775.49;;;17.16;54.18
36254;BME280;22291;52.250;21.228;2023-03-31T13:05:44;98781.70;;;16.99;53.44
36254;BME280;22291;52.250;21.228;2023-03-31T13:08:47;98776.77;;;16.77;54.32
36254;BME280;22291;52.250;21.228;2023-03-31T13:10:57;98770.31;;;16.61;54.87
36254;BME280;22291;52.250;21.228;2023-03-31T13:13:25;98762.11;;;16.54;55.52
36254;BME280;22291;52.250;21.228;2023-03-31T13:15:56;98758.19;;;16.51;55.62
36254;BME280;22291;52.250;21.228;2023-03-31T13:18:24;98755.06;;;16.46;55.26
36254;BME280;22291;52.250;21.228;2023-03-31T13:21:01;98749.59;;;16.38;54.99
36254;BME280;22291;52.250;21.228;2023-03-31T13:23:34;98748.22;;;16.31;55.58
36254;BME280;22291;52.250;21.228;2023-03-31T13:26:03;98745.31;;;16.44;56.38
36254;BME280;22291;52.250;21.228;2023-03-31T13:28:33;98741.64;;;16.50;55.72
36254;BME280;22291;52.250;21.228;2023-03-31T13:31:10;98738.31;;;16.51;55.77
36254;BME280;22291;52.250;21.228;2023-03-31T13:52:07;98709.60;;;16.29;56.19
36254;BME280;22291;52.250;21.228;2023-03-31T13:54:54;98710.33;;;16.08;56.55
36254;BME280;22291;52.250;21.228;2023-03-31T14:00:38;98712.05;;;15.68;56.48
36254;BME280;22291;52.250;21.228;2023-03-31T14:03:26;98720.91;;;15.47;56.71
36254;BME280;22291;52.250;21.228;2023-03-31T14:06:11;98718.92;;;15.12;55.48
36254;BME280;22291;52.250;21.228;2023-03-31T14:09:05;98721.78;;;14.82;56.50
36254;BME280;22291;52.250;21.228;2023-03-31T14:11:31;98718.86;;;14.61;56.95
36254;BME280;22291;52.250;21.228;2023-03-31T14:14:04;98713.41;;;14.44;57.78
36254;BME280;22291;52.250;21.228;2023-03-31T14:16:49;98709.97;;;14.30;57.94
36254;BME280;22291;52.250;21.228;2023-03-31T14:25:31;98693.62;;;13.92;60.40
36254;BME280;22291;52.250;21.228;2023-03-31T14:28:28;98694.94;;;13.89;60.73
36254;BME280;22291;52.250;21.228;2023-03-31T14:31:25;98683.08;;;13.87;61.44
36254;BME280;22291;52.250;21.228;2023-03-31T14:39:20;98669.08;;;14.81;63.20
36254;BME280;22291;52.250;21.228;2023-03-31T14:41:52;98670.20;;;14.97;62.52
36254;BME280;22291;52.250;21.228;2023-03-31T14:44:22;98664.05;;;15.07;61.51
36254;BME280;22291;52.250;21.228;2023-03-31T14:46:50;98663.62;;;15.05;61.18
36254;BME280;22291;52.250;21.228;2023-03-31T14:49:34;98664.20;;;15.04;61.33
36254;BME280;22291;52.250;21.228;2023-03-31T14:52:16;98664.56;;;14.99;60.50
36254;BME280;22291;52.250;21.228;2023-03-31T14:54:45;98667.06;;;14.98;60.32
36254;BME280;22291;52.250;21.228;2023-03-31T14:57:17;98658.48;;;14.92;60.48
36254;BME280;22291;52.250;21.228;2023-03-31T14:59:49;98655.88;;;14.83;61.01
36254;BME280;22291;52.250;21.228;2023-03-31T15:02:22;98650.57;;;14.73;60.88
36254;BME280;22291;52.250;21.228;2023-03-31T15:05:06;98647.20;;;14.66;61.55
36254;BME280;22291;52.250;21.228;2023-03-31T15:07:30;98647.34;;;14.60;61.79
36254;BME280;22291;52.250;21.228;2023-03-31T15:09:56;98645.52;;;14.54;61.49
36254;BME280;22291;52.250;21.228;2023-03-31T15:12:25;98638.48;;;14.50;61.92
36254;BME280;22291;52.250;21.228;2023-03-31T15:15:07;98636.31;;;14.46;62.02
36254;BME280;22291;52.250;21.228;2023-03-31T15:17:41;98641.67;;;14.38;62.09
36254;BME280;22291;52.250;21.228;2023-03-31T15:22:58;98651.69;;;14.27;62.60
36254;BME280;22291;52.250;21.228;2023-03-31T15:25:34;98654.09;;;14.15;61.91
36254;BME280;22291;52.250;21.228;2023-03-31T15:28:09;98649.98;;;13.95;61.66
36254;BME280;22291;52.250;21.228;2023-03-31T15:30:35;98642.61;;;13.78;61.38
36254;BME280;22291;52.250;21.228;2023-03-31T15:33:05;98644.95;;;13.63;61.16
36254;BME280;22291;52.250;21.228;2023-03-31T15:35:34;98646.17;;;13.52;61.75
36254;BME280;22291;52.250;21.228;2023-03-31T15:38:04;98646.19;;;13.39;62.39
36254;BME280;22291;52.250;21.228;2023-03-31T15:45:56;98624.95;;;13.18;63.14
36254;BME280;22291;52.250;21.228;2023-03-31T15:48:37;98621.96;;;13.13;63.61
36254;BME280;22291;52.250;21.228;2023-03-31T15:51:19;98635.05;;;13.07;63.75
36254;BME280;22291;52.250;21.228;2023-03-31T15:53:50;98654.94;;;13.02;64.80
36254;BME280;22291;52.250;21.228;2023-03-31T15:56:37;98664.65;;;12.89;65.66
36254;BME280;22291;52.250;21.228;2023-03-31T15:59:25;98666.52;;;12.72;66.07